sensor_id;sensor_type;location;lat;lon;timestamp;temperature;humidity
78479;SHT31;67769;51.972;5.668;2024-01-30T00:02:27;10.0;76.0
78479;SHT31;67769;51.972;5.668;2024-01-30T00:04:56;9.9;76.2
78479;SHT31;67769;51.972;5.668;2024-01-30T00:07:24;9.9;76.3
78479;SHT31;67769;51.972;5.668;2024-01-30T00:09:53;9.9;76.2
78479;SHT31;67769;51.972;5.668;2024-01-30T00:12:21;9.8;76.5
78479;SHT31;67769;51.972;5.668;2024-01-30T00:14:50;9.8;76.7
78479;SHT31;67769;51.972;5.668;2024-01-30T00:17:18;9.8;76.6
78479;SHT31;67769;51.972;5.668;2024-01-30T00:19:47;9.8;76.6
78479;SHT31;67769;51.972;5.668;2024-01-30T00:22:15;9.7;76.5
78479;SHT31;67769;51.972;5.668;2024-01-30T00:24:44;9.7;76.9
78479;SHT31;67769;51.972;5.668;2024-01-30T00:27:12;9.7;77.1
78479;SHT31;67769;51.972;5.668;2024-01-30T00:29:40;9.7;77.2
78479;SHT31;67769;51.972;5.668;2024-01-30T00:32:11;9.7;77.1
78479;SHT31;67769;51.972;5.668;2024-01-30T00:34:39;9.6;76.9
78479;SHT31;67769;51.972;5.668;2024-01-30T00:37:10;9.6;77.3
78479;SHT31;67769;51.972;5.668;2024-01-30T00:39:40;9.6;77.0
78479;SHT31;67769;51.972;5.668;2024-01-30T00:42:10;9.6;77.2
78479;SHT31;67769;51.972;5.668;2024-01-30T00:44:39;9.6;77.2
78479;SHT31;67769;51.972;5.668;2024-01-30T00:47:07;9.6;77.3
78479;SHT31;67769;51.972;5.668;2024-01-30T00:49:38;9.6;77.3
78479;SHT31;67769;51.972;5.668;2024-01-30T00:52:07;9.5;77.3
78479;SHT31;67769;51.972;5.668;2024-01-30T00:54:35;9.5;77.3
78479;SHT31;67769;51.972;5.668;2024-01-30T00:57:04;9.5;77.3
78479;SHT31;67769;51.972;5.668;2024-01-30T00:59:33;9.5;77.3
78479;SHT31;67769;51.972;5.668;2024-01-30T01:02:02;9.5;77.3
78479;SHT31;67769;51.972;5.668;2024-01-30T01:04:30;9.5;77.2
78479;SHT31;67769;51.972;5.668;2024-01-30T01:06:59;9.5;77.2
78479;SHT31;67769;51.972;5.668;2024-01-30T01:09:27;9.5;77.0
78479;SHT31;67769;51.972;5.668;2024-01-30T01:11:56;9.5;77.5
78479;SHT31;67769;51.972;5.668;2024-01-30T01:14:24;9.5;77.4
78479;SHT31;67769;51.972;5.668;2024-01-30T01:16:55;9.5;77.2
78479;SHT31;67769;51.972;5.668;2024-01-30T01:19:23;9.5;77.4
78479;SHT31;67769;51.972;5.668;2024-01-30T01:21:51;9.5;77.3
78479;SHT31;67769;51.972;5.668;2024-01-30T01:24:20;9.5;77.3
78479;SHT31;67769;51.972;5.668;2024-01-30T01:26:48;9.5;77.2
78479;SHT31;67769;51.972;5.668;2024-01-30T01:29:17;9.5;77.1
78479;SHT31;67769;51.972;5.668;2024-01-30T01:31:47;9.4;77.3
78479;SHT31;67769;51.972;5.668;2024-01-30T01:34:15;9.4;77.1
78479;SHT31;67769;51.972;5.668;2024-01-30T01:36:44;9.4;77.2
78479;SHT31;67769;51.972;5.668;2024-01-30T01:39:13;9.4;77.2
78479;SHT31;67769;51.972;5.668;2024-01-30T01:41:42;9.4;77.2
78479;SHT31;67769;51.972;5.668;2024-01-30T01:44:10;9.4;77.1
78479;SHT31;67769;51.972;5.668;2024-01-30T01:46:39;9.4;77.0
78479;SHT31;67769;51.972;5.668;2024-01-30T01:49:08;9.4;77.2
78479;SHT31;67769;51.972;5.668;2024-01-30T01:51:38;9.4;77.1
78479;SHT31;67769;51.972;5.668;2024-01-30T01:54:08;9.4;77.0
78479;SHT31;67769;51.972;5.668;2024-01-30T01:56:39;9.4;77.1
78479;SHT31;67769;51.972;5.668;2024-01-30T01:59:08;9.4;77.0
78479;SHT31;67769;51.972;5.668;2024-01-30T02:01:38;9.4;76.9
78479;SHT31;67769;51.972;5.668;2024-01-30T02:04:08;9.4;76.8
78479;SHT31;67769;51.972;5.668;2024-01-30T02:06:37;9.4;76.9
78479;SHT31;67769;51.972;5.668;2024-01-30T02:09:07;9.4;76.8
78479;SHT31;67769;51.972;5.668;2024-01-30T02:11:35;9.3;76.8
78479;SHT31;67769;51.972;5.668;2024-01-30T02:14:05;9.3;76.7
78479;SHT31;67769;51.972;5.668;2024-01-30T02:16:33;9.3;76.7
78479;SHT31;67769;51.972;5.668;2024-01-30T02:19:02;9.3;76.6
78479;SHT31;67769;51.972;5.668;2024-01-30T02:21:31;9.3;76.6
78479;SHT31;67769;51.972;5.668;2024-01-30T02:24:01;9.3;76.6
78479;SHT31;67769;51.972;5.668;2024-01-30T02:26:31;9.3;76.5
78479;SHT31;67769;51.972;5.668;2024-01-30T02:28:59;9.3;76.3
78479;SHT31;67769;51.972;5.668;2024-01-30T02:31:30;9.3;76.4
78479;SHT31;67769;51.972;5.668;2024-01-30T02:33:58;9.3;76.5
78479;SHT31;67769;51.972;5.668;2024-01-30T02:36:26;9.3;76.4
78479;SHT31;67769;51.972;5.668;2024-01-30T02:38:55;9.3;76.4
78479;SHT31;67769;51.972;5.668;2024-01-30T02:41:23;9.3;76.4
78479;SHT31;67769;51.972;5.668;2024-01-30T02:43:52;9.3;76.4
78479;SHT31;67769;51.972;5.668;2024-01-30T02:46:20;9.3;76.3
78479;SHT31;67769;51.972;5.668;2024-01-30T02:48:49;9.3;76.4
78479;SHT31;67769;51.972;5.668;2024-01-30T02:51:17;9.3;76.3
78479;SHT31;67769;51.972;5.668;2024-01-30T02:53:46;9.3;76.2
78479;SHT31;67769;51.972;5.668;2024-01-30T02:56:14;9.3;76.2
78479;SHT31;67769;51.972;5.668;2024-01-30T02:58:43;9.3;76.2
78479;SHT31;67769;51.972;5.668;2024-01-30T03:01:13;9.3;76.1
78479;SHT31;67769;51.972;5.668;2024-01-30T03:03:41;9.4;76.0
78479;SHT31;67769;51.972;5.668;2024-01-30T03:06:10;9.4;75.9
78479;SHT31;67769;51.972;5.668;2024-01-30T03:08:39;9.4;75.8
78479;SHT31;67769;51.972;5.668;2024-01-30T03:11:07;9.4;75.9
78479;SHT31;67769;51.972;5.668;2024-01-30T03:13:36;9.4;75.9
78479;SHT31;67769;51.972;5.668;2024-01-30T03:16:08;9.3;75.8
78479;SHT31;67769;51.972;5.668;2024-01-30T03:18:36;9.3;75.9
78479;SHT31;67769;51.972;5.668;2024-01-30T03:21:05;9.3;75.9
78479;SHT31;67769;51.972;5.668;2024-01-30T03:23:33;9.3;75.7
78479;SHT31;67769;51.972;5.668;2024-01-30T03:26:02;9.3;75.8
78479;SHT31;67769;51.972;5.668;2024-01-30T03:28:33;9.3;75.8
78479;SHT31;67769;51.972;5.668;2024-01-30T03:31:01;9.3;75.8
78479;SHT31;67769;51.972;5.668;2024-01-30T03:33:31;9.3;75.7
78479;SHT31;67769;51.972;5.668;2024-01-30T03:36:02;9.3;75.8
78479;SHT31;67769;51.972;5.668;2024-01-30T03:38:31;9.3;75.8
78479;SHT31;67769;51.972;5.668;2024-01-30T03:41:00;9.3;75.9
78479;SHT31;67769;51.972;5.668;2024-01-30T03:43:29;9.3;75.9
78479;SHT31;67769;51.972;5.668;2024-01-30T03:45:58;9.3;75.8
78479;SHT31;67769;51.972;5.668;2024-01-30T03:48:27;9.3;75.8
78479;SHT31;67769;51.972;5.668;2024-01-30T03:50:55;9.3;75.7
78479;SHT31;67769;51.972;5.668;2024-01-30T03:53:24;9.3;75.8
78479;SHT31;67769;51.972;5.668;2024-01-30T03:55:53;9.3;75.8
78479;SHT31;67769;51.972;5.668;2024-01-30T03:58:21;9.3;75.7
78479;SHT31;67769;51.972;5.668;2024-01-30T04:00:50;9.3;75.7
78479;SHT31;67769;51.972;5.668;2024-01-30T04:03:18;9.4;75.7
78479;SHT31;67769;51.972;5.668;2024-01-30T04:05:46;9.4;75.7
78479;SHT31;67769;51.972;5.668;2024-01-30T04:08:15;9.4;75.8
78479;SHT31;67769;51.972;5.668;2024-01-30T04:10:44;9.4;75.7
78479;SHT31;67769;51.972;5.668;2024-01-30T04:13:12;9.4;75.6
78479;SHT31;67769;51.972;5.668;2024-01-30T04:15:41;9.4;75.4
78479;SHT31;67769;51.972;5.668;2024-01-30T04:18:09;9.4;75.4
78479;SHT31;67769;51.972;5.668;2024-01-30T04:20:38;9.4;75.4
78479;SHT31;67769;51.972;5.668;2024-01-30T04:23:06;9.4;75.3
78479;SHT31;67769;51.972;5.668;2024-01-30T04:25:35;9.4;75.3
78479;SHT31;67769;51.972;5.668;2024-01-30T04:28:04;9.4;75.3
78479;SHT31;67769;51.972;5.668;2024-01-30T04:30:32;9.4;75.5
78479;SHT31;67769;51.972;5.668;2024-01-30T04:33:01;9.4;75.4
78479;SHT31;67769;51.972;5.668;2024-01-30T04:35:29;9.4;75.4
78479;SHT31;67769;51.972;5.668;2024-01-30T04:37:58;9.4;75.4
78479;SHT31;67769;51.972;5.668;2024-01-30T04:40:26;9.4;75.4
78479;SHT31;67769;51.972;5.668;2024-01-30T04:42:57;9.4;75.5
78479;SHT31;67769;51.972;5.668;2024-01-30T04:45:25;9.4;75.6
78479;SHT31;67769;51.972;5.668;2024-01-30T04:47:53;9.4;75.6
78479;SHT31;67769;51.972;5.668;2024-01-30T04:50:22;9.4;75.7
78479;SHT31;67769;51.972;5.668;2024-01-30T04:52:53;9.4;75.7
78479;SHT31;67769;51.972;5.668;2024-01-30T04:55:21;9.4;75.7
78479;SHT31;67769;51.972;5.668;2024-01-30T04:57:49;9.4;75.8
78479;SHT31;67769;51.972;5.668;2024-01-30T05:00:18;9.4;75.8
78479;SHT31;67769;51.972;5.668;2024-01-30T05:02:47;9.4;75.9
78479;SHT31;67769;51.972;5.668;2024-01-30T05:05:15;9.5;75.9
78479;SHT31;67769;51.972;5.668;2024-01-30T05:07:44;9.5;75.9
78479;SHT31;67769;51.972;5.668;2024-01-30T05:10:13;9.5;75.8
78479;SHT31;67769;51.972;5.668;2024-01-30T05:12:41;9.5;75.6
78479;SHT31;67769;51.972;5.668;2024-01-30T05:15:10;9.6;75.5
78479;SHT31;67769;51.972;5.668;2024-01-30T05:17:39;9.6;75.4
78479;SHT31;67769;51.972;5.668;2024-01-30T05:20:10;9.6;75.4
78479;SHT31;67769;51.972;5.668;2024-01-30T05:22:39;9.6;75.4
78479;SHT31;67769;51.972;5.668;2024-01-30T05:25:11;9.6;75.4
78479;SHT31;67769;51.972;5.668;2024-01-30T05:27:42;9.6;75.4
78479;SHT31;67769;51.972;5.668;2024-01-30T05:30:11;9.6;75.3
78479;SHT31;67769;51.972;5.668;2024-01-30T05:32:39;9.6;75.4
78479;SHT31;67769;51.972;5.668;2024-01-30T05:35:08;9.7;75.3
78479;SHT31;67769;51.972;5.668;2024-01-30T05:37:37;9.7;75.4
78479;SHT31;67769;51.972;5.668;2024-01-30T05:40:07;9.7;75.5
78479;SHT31;67769;51.972;5.668;2024-01-30T05:42:36;9.7;75.7
78479;SHT31;67769;51.972;5.668;2024-01-30T05:45:05;9.7;75.7
78479;SHT31;67769;51.972;5.668;2024-01-30T05:47:34;9.7;75.8
78479;SHT31;67769;51.972;5.668;2024-01-30T05:50:03;9.7;75.8
78479;SHT31;67769;51.972;5.668;2024-01-30T05:52:31;9.7;75.9
78479;SHT31;67769;51.972;5.668;2024-01-30T05:55:00;9.7;75.9
78479;SHT31;67769;51.972;5.668;2024-01-30T05:57:29;9.7;75.9
78479;SHT31;67769;51.972;5.668;2024-01-30T05:59:58;9.7;76.0
78479;SHT31;67769;51.972;5.668;2024-01-30T06:02:26;9.8;75.8
78479;SHT31;67769;51.972;5.668;2024-01-30T06:04:55;9.8;75.7
78479;SHT31;67769;51.972;5.668;2024-01-30T06:07:23;9.8;75.6
78479;SHT31;67769;51.972;5.668;2024-01-30T06:09:51;9.9;75.5
78479;SHT31;67769;51.972;5.668;2024-01-30T06:12:20;9.9;75.6
78479;SHT31;67769;51.972;5.668;2024-01-30T06:14:48;9.9;75.5
78479;SHT31;67769;51.972;5.668;2024-01-30T06:17:17;9.9;75.6
78479;SHT31;67769;51.972;5.668;2024-01-30T06:19:45;9.9;75.6
78479;SHT31;67769;51.972;5.668;2024-01-30T06:22:14;9.9;75.6
78479;SHT31;67769;51.972;5.668;2024-01-30T06:24:43;9.9;75.6
78479;SHT31;67769;51.972;5.668;2024-01-30T06:27:14;10.0;75.5
78479;SHT31;67769;51.972;5.668;2024-01-30T06:29:44;10.0;75.6
78479;SHT31;67769;51.972;5.668;2024-01-30T06:32:13;10.0;75.5
78479;SHT31;67769;51.972;5.668;2024-01-30T06:34:42;10.0;75.5
78479;SHT31;67769;51.972;5.668;2024-01-30T06:37:11;10.0;75.5
78479;SHT31;67769;51.972;5.668;2024-01-30T06:39:39;10.0;75.5
78479;SHT31;67769;51.972;5.668;2024-01-30T06:42:08;10.0;75.6
78479;SHT31;67769;51.972;5.668;2024-01-30T06:44:37;10.0;75.6
78479;SHT31;67769;51.972;5.668;2024-01-30T06:47:06;10.1;75.5
78479;SHT31;67769;51.972;5.668;2024-01-30T06:49:34;10.1;75.5
78479;SHT31;67769;51.972;5.668;2024-01-30T06:52:05;10.1;75.4
78479;SHT31;67769;51.972;5.668;2024-01-30T06:54:33;10.1;75.5
78479;SHT31;67769;51.972;5.668;2024-01-30T06:57:03;10.1;75.3
78479;SHT31;67769;51.972;5.668;2024-01-30T06:59:35;10.2;75.2
78479;SHT31;67769;51.972;5.668;2024-01-30T07:02:04;10.2;75.2
78479;SHT31;67769;51.972;5.668;2024-01-30T07:04:34;10.2;75.2
78479;SHT31;67769;51.972;5.668;2024-01-30T07:07:03;10.2;75.2
78479;SHT31;67769;51.972;5.668;2024-01-30T07:09:37;10.2;75.2
78479;SHT31;67769;51.972;5.668;2024-01-30T07:12:06;10.2;75.2
78479;SHT31;67769;51.972;5.668;2024-01-30T07:14:35;10.2;75.3
78479;SHT31;67769;51.972;5.668;2024-01-30T07:17:04;10.2;75.2
78479;SHT31;67769;51.972;5.668;2024-01-30T07:19:33;10.2;75.2
78479;SHT31;67769;51.972;5.668;2024-01-30T07:22:03;10.2;75.2
78479;SHT31;67769;51.972;5.668;2024-01-30T07:24:31;10.2;75.2
78479;SHT31;67769;51.972;5.668;2024-01-30T07:27:00;10.3;75.1
78479;SHT31;67769;51.972;5.668;2024-01-30T07:29:28;10.3;75.2
78479;SHT31;67769;51.972;5.668;2024-01-30T07:31:57;10.3;75.2
78479;SHT31;67769;51.972;5.668;2024-01-30T07:34:25;10.3;75.3
78479;SHT31;67769;51.972;5.668;2024-01-30T07:36:54;10.3;75.4
78479;SHT31;67769;51.972;5.668;2024-01-30T07:39:22;10.3;75.5
78479;SHT31;67769;51.972;5.668;2024-01-30T07:41:51;10.3;75.6
78479;SHT31;67769;51.972;5.668;2024-01-30T07:44:19;10.3;75.5
78479;SHT31;67769;51.972;5.668;2024-01-30T07:46:48;10.3;75.7
78479;SHT31;67769;51.972;5.668;2024-01-30T07:49:16;10.3;75.8
78479;SHT31;67769;51.972;5.668;2024-01-30T07:51:45;10.3;75.9
78479;SHT31;67769;51.972;5.668;2024-01-30T07:54:16;10.3;76.1
78479;SHT31;67769;51.972;5.668;2024-01-30T07:56:45;10.3;76.1
78479;SHT31;67769;51.972;5.668;2024-01-30T07:59:14;10.4;76.1
78479;SHT31;67769;51.972;5.668;2024-01-30T08:01:43;10.4;76.2
78479;SHT31;67769;51.972;5.668;2024-01-30T08:04:11;10.4;76.2
78479;SHT31;67769;51.972;5.668;2024-01-30T08:06:39;10.4;76.2
78479;SHT31;67769;51.972;5.668;2024-01-30T08:09:08;10.5;76.1
78479;SHT31;67769;51.972;5.668;2024-01-30T08:11:37;10.5;76.1
78479;SHT31;67769;51.972;5.668;2024-01-30T08:14:07;10.5;76.2
78479;SHT31;67769;51.972;5.668;2024-01-30T08:16:35;10.6;76.2
78479;SHT31;67769;51.972;5.668;2024-01-30T08:19:04;10.6;76.2
78479;SHT31;67769;51.972;5.668;2024-01-30T08:21:32;10.6;76.3
78479;SHT31;67769;51.972;5.668;2024-01-30T08:24:02;10.6;76.2
78479;SHT31;67769;51.972;5.668;2024-01-30T08:26:31;10.7;76.2
78479;SHT31;67769;51.972;5.668;2024-01-30T08:29:00;10.7;76.3
78479;SHT31;67769;51.972;5.668;2024-01-30T08:31:29;10.8;76.4
78479;SHT31;67769;51.972;5.668;2024-01-30T08:33:57;10.8;76.5
78479;SHT31;67769;51.972;5.668;2024-01-30T08:36:26;10.8;76.5
78479;SHT31;67769;51.972;5.668;2024-01-30T08:38:54;10.9;76.4
78479;SHT31;67769;51.972;5.668;2024-01-30T08:41:23;10.9;76.3
78479;SHT31;67769;51.972;5.668;2024-01-30T08:43:52;11.0;76.4
78479;SHT31;67769;51.972;5.668;2024-01-30T08:46:20;11.0;76.4
78479;SHT31;67769;51.972;5.668;2024-01-30T08:48:51;11.1;76.2
78479;SHT31;67769;51.972;5.668;2024-01-30T08:51:19;11.1;76.2
78479;SHT31;67769;51.972;5.668;2024-01-30T08:53:48;11.2;76.2
78479;SHT31;67769;51.972;5.668;2024-01-30T08:56:16;11.2;76.1
78479;SHT31;67769;51.972;5.668;2024-01-30T08:58:45;11.3;76.0
78479;SHT31;67769;51.972;5.668;2024-01-30T09:01:14;11.3;75.8
78479;SHT31;67769;51.972;5.668;2024-01-30T09:03:42;11.4;75.7
78479;SHT31;67769;51.972;5.668;2024-01-30T09:06:13;11.4;75.6
78479;SHT31;67769;51.972;5.668;2024-01-30T09:08:41;11.5;75.7
78479;SHT31;67769;51.972;5.668;2024-01-30T09:11:11;11.5;75.9
78479;SHT31;67769;51.972;5.668;2024-01-30T09:13:41;11.6;75.8
78479;SHT31;67769;51.972;5.668;2024-01-30T09:16:10;11.6;75.7
78479;SHT31;67769;51.972;5.668;2024-01-30T09:18:38;11.7;75.6
78479;SHT31;67769;51.972;5.668;2024-01-30T09:21:07;11.7;75.4
78479;SHT31;67769;51.972;5.668;2024-01-30T09:23:36;11.7;75.3
78479;SHT31;67769;51.972;5.668;2024-01-30T09:26:04;11.8;75.4
78479;SHT31;67769;51.972;5.668;2024-01-30T09:28:33;11.8;75.2
78479;SHT31;67769;51.972;5.668;2024-01-30T09:31:01;11.8;75.1
78479;SHT31;67769;51.972;5.668;2024-01-30T09:33:30;11.9;75.0
78479;SHT31;67769;51.972;5.668;2024-01-30T09:35:58;11.9;75.1
78479;SHT31;67769;51.972;5.668;2024-01-30T09:38:27;11.9;75.3
78479;SHT31;67769;51.972;5.668;2024-01-30T09:40:55;11.9;75.3
78479;SHT31;67769;51.972;5.668;2024-01-30T09:43:24;12.0;75.3
78479;SHT31;67769;51.972;5.668;2024-01-30T09:45:53;12.0;75.2
78479;SHT31;67769;51.972;5.668;2024-01-30T09:48:23;12.0;75.2
78479;SHT31;67769;51.972;5.668;2024-01-30T09:50:53;12.1;75.4
78479;SHT31;67769;51.972;5.668;2024-01-30T09:53:22;12.1;75.3
78479;SHT31;67769;51.972;5.668;2024-01-30T09:55:51;12.1;75.2
78479;SHT31;67769;51.972;5.668;2024-01-30T09:58:19;12.1;75.3
78479;SHT31;67769;51.972;5.668;2024-01-30T10:00:49;12.2;75.0
78479;SHT31;67769;51.972;5.668;2024-01-30T10:03:17;12.2;74.8
78479;SHT31;67769;51.972;5.668;2024-01-30T10:05:51;12.2;74.9
78479;SHT31;67769;51.972;5.668;2024-01-30T10:08:22;12.2;74.9
78479;SHT31;67769;51.972;5.668;2024-01-30T10:10:53;12.2;75.1
78479;SHT31;67769;51.972;5.668;2024-01-30T10:13:21;12.2;75.1
78479;SHT31;67769;51.972;5.668;2024-01-30T10:15:50;12.2;75.1
78479;SHT31;67769;51.972;5.668;2024-01-30T10:18:18;12.2;75.4
78479;SHT31;67769;51.972;5.668;2024-01-30T10:20:47;12.3;75.3
78479;SHT31;67769;51.972;5.668;2024-01-30T10:23:16;12.3;75.1
78479;SHT31;67769;51.972;5.668;2024-01-30T10:25:45;12.3;75.0
78479;SHT31;67769;51.972;5.668;2024-01-30T10:28:16;12.3;75.0
78479;SHT31;67769;51.972;5.668;2024-01-30T10:30:44;12.3;75.1
78479;SHT31;67769;51.972;5.668;2024-01-30T10:33:12;12.3;75.1
78479;SHT31;67769;51.972;5.668;2024-01-30T10:35:41;12.3;75.0
78479;SHT31;67769;51.972;5.668;2024-01-30T10:38:10;12.3;75.1
78479;SHT31;67769;51.972;5.668;2024-01-30T10:40:45;12.3;75.1
78479;SHT31;67769;51.972;5.668;2024-01-30T10:43:15;12.4;74.9
78479;SHT31;67769;51.972;5.668;2024-01-30T10:45:49;12.4;74.6
78479;SHT31;67769;51.972;5.668;2024-01-30T10:48:24;12.4;74.6
78479;SHT31;67769;51.972;5.668;2024-01-30T10:50:56;12.4;74.2
78479;SHT31;67769;51.972;5.668;2024-01-30T10:53:26;12.5;74.3
78479;SHT31;67769;51.972;5.668;2024-01-30T10:55:56;12.5;74.3
78479;SHT31;67769;51.972;5.668;2024-01-30T10:58:27;12.5;74.4
78479;SHT31;67769;51.972;5.668;2024-01-30T11:00:56;12.6;74.4
78479;SHT31;67769;51.972;5.668;2024-01-30T11:03:25;12.7;74.2
78479;SHT31;67769;51.972;5.668;2024-01-30T11:05:59;12.7;74.5
78479;SHT31;67769;51.972;5.668;2024-01-30T11:08:28;12.8;74.4
78479;SHT31;67769;51.972;5.668;2024-01-30T11:10:58;12.9;74.3
78479;SHT31;67769;51.972;5.668;2024-01-30T11:13:29;13.0;73.3
78479;SHT31;67769;51.972;5.668;2024-01-30T11:16:02;13.1;72.7
78479;SHT31;67769;51.972;5.668;2024-01-30T11:18:32;13.1;73.3
78479;SHT31;67769;51.972;5.668;2024-01-30T11:21:01;13.1;72.8
78479;SHT31;67769;51.972;5.668;2024-01-30T11:23:32;13.2;72.2
78479;SHT31;67769;51.972;5.668;2024-01-30T11:26:01;13.2;72.1
78479;SHT31;67769;51.972;5.668;2024-01-30T11:28:34;13.2;72.2
78479;SHT31;67769;51.972;5.668;2024-01-30T11:31:06;13.2;72.1
78479;SHT31;67769;51.972;5.668;2024-01-30T11:33:35;13.2;72.3
78479;SHT31;67769;51.972;5.668;2024-01-30T11:36:07;13.2;72.3
78479;SHT31;67769;51.972;5.668;2024-01-30T11:38:36;13.2;72.6
78479;SHT31;67769;51.972;5.668;2024-01-30T11:41:05;13.2;72.2
78479;SHT31;67769;51.972;5.668;2024-01-30T11:43:34;13.2;71.9
78479;SHT31;67769;51.972;5.668;2024-01-30T11:46:05;13.2;71.6
78479;SHT31;67769;51.972;5.668;2024-01-30T11:48:34;13.2;71.6
78479;SHT31;67769;51.972;5.668;2024-01-30T11:51:03;13.2;71.1
78479;SHT31;67769;51.972;5.668;2024-01-30T11:53:32;13.2;70.3
78479;SHT31;67769;51.972;5.668;2024-01-30T11:56:00;13.2;70.7
78479;SHT31;67769;51.972;5.668;2024-01-30T11:58:30;13.2;69.9
78479;SHT31;67769;51.972;5.668;2024-01-30T12:00:58;13.2;69.5
78479;SHT31;67769;51.972;5.668;2024-01-30T12:03:27;13.2;69.5
78479;SHT31;67769;51.972;5.668;2024-01-30T12:05:58;13.2;70.3
78479;SHT31;67769;51.972;5.668;2024-01-30T12:08:27;13.2;70.4
78479;SHT31;67769;51.972;5.668;2024-01-30T12:10:59;13.1;69.6
78479;SHT31;67769;51.972;5.668;2024-01-30T12:13:31;13.1;69.2
78479;SHT31;67769;51.972;5.668;2024-01-30T12:16:01;13.0;69.5
78479;SHT31;67769;51.972;5.668;2024-01-30T12:18:30;13.0;69.2
78479;SHT31;67769;51.972;5.668;2024-01-30T12:20:59;12.9;69.8
78479;SHT31;67769;51.972;5.668;2024-01-30T12:23:28;12.9;69.1
78479;SHT31;67769;51.972;5.668;2024-01-30T12:25:57;12.8;69.6
78479;SHT31;67769;51.972;5.668;2024-01-30T12:28:26;12.8;69.0
78479;SHT31;67769;51.972;5.668;2024-01-30T12:30:56;12.7;68.7
78479;SHT31;67769;51.972;5.668;2024-01-30T12:33:30;12.6;68.1
78479;SHT31;67769;51.972;5.668;2024-01-30T12:36:01;12.5;68.4
78479;SHT31;67769;51.972;5.668;2024-01-30T12:38:30;12.4;67.9
78479;SHT31;67769;51.972;5.668;2024-01-30T12:40:59;12.3;68.1
78479;SHT31;67769;51.972;5.668;2024-01-30T12:43:28;12.2;68.6
78479;SHT31;67769;51.972;5.668;2024-01-30T12:45:58;12.2;69.3
78479;SHT31;67769;51.972;5.668;2024-01-30T12:48:28;12.1;69.0
78479;SHT31;67769;51.972;5.668;2024-01-30T12:50:57;12.1;69.0
78479;SHT31;67769;51.972;5.668;2024-01-30T12:53:26;12.1;69.3
78479;SHT31;67769;51.972;5.668;2024-01-30T12:55:55;12.0;69.2
78479;SHT31;67769;51.972;5.668;2024-01-30T12:58:23;12.0;69.4
78479;SHT31;67769;51.972;5.668;2024-01-30T13:00:52;12.0;69.2
78479;SHT31;67769;51.972;5.668;2024-01-30T13:03:22;12.0;69.2
78479;SHT31;67769;51.972;5.668;2024-01-30T13:05:50;12.0;69.5
78479;SHT31;67769;51.972;5.668;2024-01-30T13:08:19;12.0;69.5
78479;SHT31;67769;51.972;5.668;2024-01-30T13:10:47;12.0;69.2
78479;SHT31;67769;51.972;5.668;2024-01-30T13:13:15;12.0;69.4
78479;SHT31;67769;51.972;5.668;2024-01-30T13:15:44;12.0;69.0
78479;SHT31;67769;51.972;5.668;2024-01-30T13:18:14;12.0;68.9
78479;SHT31;67769;51.972;5.668;2024-01-30T13:20:43;12.0;69.1
78479;SHT31;67769;51.972;5.668;2024-01-30T13:23:11;12.0;69.1
78479;SHT31;67769;51.972;5.668;2024-01-30T13:25:40;11.9;69.6
78479;SHT31;67769;51.972;5.668;2024-01-30T13:28:08;11.8;70.0
78479;SHT31;67769;51.972;5.668;2024-01-30T13:30:37;11.7;70.3
78479;SHT31;67769;51.972;5.668;2024-01-30T13:33:05;11.6;69.8
78479;SHT31;67769;51.972;5.668;2024-01-30T13:35:34;11.5;70.5
78479;SHT31;67769;51.972;5.668;2024-01-30T13:38:03;11.4;70.0
78479;SHT31;67769;51.972;5.668;2024-01-30T13:40:31;11.3;70.5
78479;SHT31;67769;51.972;5.668;2024-01-30T13:43:00;11.3;70.7
78479;SHT31;67769;51.972;5.668;2024-01-30T13:45:28;11.2;70.7
78479;SHT31;67769;51.972;5.668;2024-01-30T13:47:57;11.1;70.6
78479;SHT31;67769;51.972;5.668;2024-01-30T13:50:25;11.1;70.8
78479;SHT31;67769;51.972;5.668;2024-01-30T13:52:54;11.0;71.4
78479;SHT31;67769;51.972;5.668;2024-01-30T13:55:22;11.0;71.1
78479;SHT31;67769;51.972;5.668;2024-01-30T13:57:51;10.9;71.3
78479;SHT31;67769;51.972;5.668;2024-01-30T14:00:20;10.9;71.3
78479;SHT31;67769;51.972;5.668;2024-01-30T14:02:49;10.9;71.2
78479;SHT31;67769;51.972;5.668;2024-01-30T14:05:17;10.9;71.4
78479;SHT31;67769;51.972;5.668;2024-01-30T14:07:47;10.8;71.6
78479;SHT31;67769;51.972;5.668;2024-01-30T14:10:16;10.8;71.5
78479;SHT31;67769;51.972;5.668;2024-01-30T14:12:46;10.8;71.7
78479;SHT31;67769;51.972;5.668;2024-01-30T14:15:15;10.8;72.1
78479;SHT31;67769;51.972;5.668;2024-01-30T14:17:45;10.8;71.9
78479;SHT31;67769;51.972;5.668;2024-01-30T14:20:15;10.9;71.8
78479;SHT31;67769;51.972;5.668;2024-01-30T14:22:45;10.8;72.2
78479;SHT31;67769;51.972;5.668;2024-01-30T14:25:13;10.9;72.5
78479;SHT31;67769;51.972;5.668;2024-01-30T14:27:43;10.9;72.4
78479;SHT31;67769;51.972;5.668;2024-01-30T14:30:12;10.9;72.1
78479;SHT31;67769;51.972;5.668;2024-01-30T14:32:40;10.9;72.1
78479;SHT31;67769;51.972;5.668;2024-01-30T14:35:11;10.9;71.9
78479;SHT31;67769;51.972;5.668;2024-01-30T14:37:39;10.9;71.9
78479;SHT31;67769;51.972;5.668;2024-01-30T14:40:11;10.9;72.1
78479;SHT31;67769;51.972;5.668;2024-01-30T14:42:39;10.9;72.7
78479;SHT31;67769;51.972;5.668;2024-01-30T14:45:08;10.9;73.2
78479;SHT31;67769;51.972;5.668;2024-01-30T14:47:38;10.8;73.6
78479;SHT31;67769;51.972;5.668;2024-01-30T14:50:07;10.8;74.0
78479;SHT31;67769;51.972;5.668;2024-01-30T14:52:36;10.8;74.3
78479;SHT31;67769;51.972;5.668;2024-01-30T14:55:06;10.7;74.5
78479;SHT31;67769;51.972;5.668;2024-01-30T14:57:36;10.7;74.3
78479;SHT31;67769;51.972;5.668;2024-01-30T15:00:05;10.7;74.6
78479;SHT31;67769;51.972;5.668;2024-01-30T15:02:35;10.7;74.4
78479;SHT31;67769;51.972;5.668;2024-01-30T15:05:04;10.6;74.4
78479;SHT31;67769;51.972;5.668;2024-01-30T15:07:33;10.6;74.5
78479;SHT31;67769;51.972;5.668;2024-01-30T15:10:02;10.6;74.4
78479;SHT31;67769;51.972;5.668;2024-01-30T15:12:31;10.5;74.6
78479;SHT31;67769;51.972;5.668;2024-01-30T15:14:59;10.5;74.7
78479;SHT31;67769;51.972;5.668;2024-01-30T15:17:28;10.4;75.0
78479;SHT31;67769;51.972;5.668;2024-01-30T15:19:56;10.4;75.0
78479;SHT31;67769;51.972;5.668;2024-01-30T15:22:26;10.4;75.1
78479;SHT31;67769;51.972;5.668;2024-01-30T15:24:55;10.3;75.6
78479;SHT31;67769;51.972;5.668;2024-01-30T15:27:23;10.3;75.9
78479;SHT31;67769;51.972;5.668;2024-01-30T15:29:52;10.3;76.1
78479;SHT31;67769;51.972;5.668;2024-01-30T15:32:20;10.3;76.2
78479;SHT31;67769;51.972;5.668;2024-01-30T15:34:49;10.2;76.7
78479;SHT31;67769;51.972;5.668;2024-01-30T15:37:17;10.2;77.0
78479;SHT31;67769;51.972;5.668;2024-01-30T15:39:46;10.2;77.2
78479;SHT31;67769;51.972;5.668;2024-01-30T15:42:14;10.2;77.8
78479;SHT31;67769;51.972;5.668;2024-01-30T15:44:42;10.2;78.3
78479;SHT31;67769;51.972;5.668;2024-01-30T15:47:11;10.1;78.9
78479;SHT31;67769;51.972;5.668;2024-01-30T15:49:39;10.1;79.4
78479;SHT31;67769;51.972;5.668;2024-01-30T15:52:08;10.1;79.8
78479;SHT31;67769;51.972;5.668;2024-01-30T15:54:40;10.1;79.7
78479;SHT31;67769;51.972;5.668;2024-01-30T15:57:09;10.0;80.0
78479;SHT31;67769;51.972;5.668;2024-01-30T15:59:38;10.0;80.2
78479;SHT31;67769;51.972;5.668;2024-01-30T16:02:06;9.9;80.2
78479;SHT31;67769;51.972;5.668;2024-01-30T16:04:35;9.9;80.5
78479;SHT31;67769;51.972;5.668;2024-01-30T16:07:04;9.8;80.4
78479;SHT31;67769;51.972;5.668;2024-01-30T16:09:32;9.8;80.5
78479;SHT31;67769;51.972;5.668;2024-01-30T16:12:00;9.8;80.7
78479;SHT31;67769;51.972;5.668;2024-01-30T16:14:29;9.8;80.7
78479;SHT31;67769;51.972;5.668;2024-01-30T16:17:00;9.7;80.9
78479;SHT31;67769;51.972;5.668;2024-01-30T16:19:28;9.7;81.3